KONO

Ontario Municipal Airport

Ontario, Oregon, USA
METAR KONO 141653Z AUTO 09008KT 10SM CLR 01/M06 A3024 RMK AO2 SLP263 T00111056
Observed Flight Rules
Dec-14 @ 16:53 UTC (11 minutes ago) Visual Flight Rules
Wind Visibility Clouds
90° at 8 knots 10 miles
  • Clear skies
Temperatures Readings
Current 1°C / 34°F
Dewpoint -6°C / 21°F
Humidity 60%
Altimeter 30.24" Hg
Pressure 1026.3 hPa
Elevation 667
METAR KONO 141653Z AUTO 09008KT 10SM CLR 01/M06 A3024 RMK AO2 SLP263 T00111056
Observed Flight Rules
Dec-14 @ 16:53 UTC
(11 minutes ago)
VFR
Wind Visibility
90° at 8 knots 10 miles
Clouds
  • Clear skies
Temperature Dewpoint
1°C / 34°F -6°C / 21°F
Humidity Altimeter Pressure
60% 30.24" Hg 1026.3 hPa